createdAt,value
2018-08-17T00:01:19.042Z,80.89
2018-08-17T00:03:53.698Z,80.87
2018-08-17T00:06:27.191Z,80.16
2018-08-17T00:09:00.626Z,81.02
2018-08-17T00:11:34.207Z,80.88
2018-08-17T00:14:07.784Z,81.26
2018-08-17T00:16:42.047Z,81.40
2018-08-17T00:19:15.636Z,80.45
2018-08-17T00:21:49.211Z,81.91
2018-08-17T00:24:22.787Z,82.00
2018-08-17T00:26:56.478Z,81.05
2018-08-17T00:29:31.411Z,80.69
2018-08-17T00:32:05.021Z,81.63
2018-08-17T00:34:38.717Z,81.95
2018-08-17T00:37:12.341Z,81.56
2018-08-17T00:39:45.809Z,82.03
2018-08-17T00:42:19.115Z,81.87
2018-08-17T00:44:52.117Z,82.79
2018-08-17T00:47:24.968Z,82.35
2018-08-17T00:49:57.970Z,82.35
2018-08-17T00:52:30.912Z,82.81
2018-08-17T00:55:03.736Z,82.98
2018-08-17T00:57:37.685Z,82.06
2018-08-17T01:00:10.912Z,83.14
2018-08-17T01:02:43.770Z,83.02
2018-08-17T01:05:16.730Z,82.58
2018-08-17T01:07:49.737Z,82.40
2018-08-17T01:10:22.824Z,82.90
2018-08-17T01:12:56.501Z,82.87
2018-08-17T01:15:31.431Z,82.87
2018-08-17T01:18:04.223Z,82.44
2018-08-17T01:20:37.101Z,82.67
2018-08-17T01:23:10.280Z,82.28
2018-08-17T01:25:43.128Z,81.63
2018-08-17T01:28:16.028Z,82.09
2018-08-17T01:30:49.042Z,82.37
2018-08-17T01:33:21.976Z,81.48
2018-08-17T01:35:54.859Z,82.43
2018-08-17T01:38:27.882Z,82.98
2018-08-17T01:41:01.054Z,83.19
2018-08-17T01:43:34.221Z,82.18
2018-08-17T01:46:07.242Z,82.12
2018-08-17T01:48:40.201Z,82.09
2018-08-17T01:51:13.102Z,82.76
2018-08-17T01:53:45.992Z,82.74
2018-08-17T01:56:19.488Z,82.28
2018-08-17T01:58:52.570Z,82.48
2018-08-17T02:01:26.198Z,81.73
2018-08-17T02:03:59.090Z,81.95
2018-08-17T02:06:32.070Z,82.42
2018-08-17T02:09:05.169Z,81.74
2018-08-17T02:11:38.096Z,82.33
2018-08-17T02:14:11.069Z,82.65
2018-08-17T02:16:43.983Z,82.27
2018-08-17T02:19:16.882Z,82.56
2018-08-17T02:21:49.861Z,82.67
2018-08-17T02:24:22.931Z,82.49
2018-08-17T02:26:57.040Z,82.52
2018-08-17T02:29:29.968Z,82.39
2018-08-17T02:32:03.790Z,82.54
2018-08-17T02:34:36.721Z,82.36
2018-08-17T02:37:10.259Z,81.43
2018-08-17T02:39:43.356Z,81.89
2018-08-17T02:42:17.416Z,81.34
2018-08-17T02:44:51.000Z,81.89
2018-08-17T02:47:24.578Z,81.24
2018-08-17T02:49:58.041Z,80.39
2018-08-17T02:52:31.593Z,80.78
2018-08-17T02:55:06.605Z,80.75
2018-08-17T02:57:40.270Z,80.07
2018-08-17T03:00:13.918Z,80.76
2018-08-17T03:02:47.119Z,80.77
2018-08-17T03:05:20.088Z,80.09
2018-08-17T03:07:52.958Z,80.03
2018-08-17T03:10:25.847Z,80.98
2018-08-17T03:12:59.526Z,81.00
2018-08-17T03:15:32.536Z,80.24
2018-08-17T03:18:05.495Z,80.99
2018-08-17T03:20:39.754Z,81.24
2018-08-17T03:23:12.667Z,80.50
2018-08-17T03:25:45.620Z,80.17
2018-08-17T03:28:18.654Z,80.00
2018-08-17T03:30:51.734Z,80.08
2018-08-17T03:33:24.862Z,80.90
2018-08-17T03:35:57.882Z,80.53
2018-08-17T03:38:30.886Z,79.26
2018-08-17T03:41:03.942Z,79.56
2018-08-17T03:43:36.889Z,79.17
2018-08-17T03:46:09.783Z,79.68
2018-08-17T03:48:42.640Z,78.98
2018-08-17T03:51:15.581Z,78.32
2018-08-17T03:53:48.618Z,78.13
2018-08-17T03:56:21.394Z,78.31
2018-08-17T03:58:54.301Z,77.66
2018-08-17T04:01:27.373Z,78.37
2018-08-17T04:04:00.748Z,78.07
2018-08-17T04:06:33.654Z,77.01
2018-08-17T04:09:07.369Z,77.80
2018-08-17T04:11:40.383Z,77.22
2018-08-17T04:14:13.234Z,76.37
2018-08-17T04:16:46.372Z,76.11
2018-08-17T04:19:19.267Z,74.47
2018-08-17T04:21:52.218Z,74.64
2018-08-17T04:24:25.189Z,74.01
2018-08-17T04:26:58.047Z,74.39
2018-08-17T04:29:30.864Z,72.82
2018-08-17T04:32:03.813Z,73.19
2018-08-17T04:34:36.832Z,72.92
2018-08-17T04:37:09.819Z,71.88
2018-08-17T04:39:43.277Z,71.33
2018-08-17T04:42:16.168Z,70.75
2018-08-17T04:44:49.207Z,68.80
2018-08-17T04:47:22.280Z,67.04
2018-08-17T04:49:55.184Z,66.61
2018-08-17T04:52:28.211Z,67.57
2018-08-17T04:55:01.180Z,65.27
2018-08-17T04:57:34.279Z,64.88
2018-08-17T05:00:08.647Z,66.40
2018-08-17T05:02:43.237Z,66.30
2018-08-17T05:05:16.297Z,66.80
2018-08-17T05:07:49.380Z,65.63
2018-08-17T05:10:22.409Z,65.75
2018-08-17T05:12:55.434Z,65.33
2018-08-17T05:15:29.540Z,65.51
2018-08-17T05:18:02.728Z,65.96
2018-08-17T05:20:35.604Z,65.08
2018-08-17T05:23:08.560Z,64.18
2018-08-17T05:25:41.484Z,62.68
2018-08-17T05:28:15.735Z,62.78
2018-08-17T05:30:49.309Z,63.25
2018-08-17T05:33:22.295Z,64.31
2018-08-17T05:35:55.324Z,64.59
2018-08-17T05:38:28.411Z,65.14
2018-08-17T05:41:01.360Z,65.16
2018-08-17T05:43:34.800Z,64.39
2018-08-17T05:46:07.650Z,64.53
2018-08-17T05:48:40.497Z,64.32
2018-08-17T05:51:13.581Z,63.75
2018-08-17T05:53:48.280Z,62.66
2018-08-17T05:56:21.232Z,60.40
2018-08-17T05:58:54.190Z,58.27
2018-08-17T06:01:27.165Z,58.91
2018-08-17T06:04:00.081Z,57.99
2018-08-17T06:06:33.023Z,58.65
2018-08-17T06:09:06.825Z,59.98
2018-08-17T06:11:40.004Z,59.18
2018-08-17T06:14:13.918Z,59.88
2018-08-17T06:16:46.910Z,58.04
2018-08-17T06:19:19.826Z,59.80
2018-08-17T06:21:53.112Z,59.14
2018-08-17T06:24:26.038Z,58.76
2018-08-17T06:26:59.111Z,58.20
2018-08-17T06:29:31.941Z,56.17
2018-08-17T06:32:04.851Z,56.28
2018-08-17T06:34:37.763Z,56.01
2018-08-17T06:37:11.415Z,57.08
2018-08-17T06:39:44.423Z,55.05
2018-08-17T06:42:17.430Z,54.05
2018-08-17T06:44:51.168Z,54.22
2018-08-17T06:47:24.916Z,53.57
2018-08-17T06:49:57.968Z,53.92
2018-08-17T06:52:30.891Z,52.73
2018-08-17T06:57:59.911Z,52.94
2018-08-17T07:00:34.150Z,51.48
2018-08-17T07:03:07.299Z,53.15
2018-08-17T07:05:40.282Z,51.85
2018-08-17T07:08:13.145Z,51.89
2018-08-17T07:10:46.233Z,50.02
2018-08-17T07:13:19.214Z,51.42
2018-08-17T07:15:52.146Z,50.49
2018-08-17T07:18:25.108Z,50.78
2018-08-17T07:20:58.005Z,50.35
2018-08-17T07:23:30.993Z,50.05
2018-08-17T07:26:03.972Z,51.62
2018-08-17T07:28:36.809Z,51.76
2018-08-17T07:31:09.661Z,51.45
2018-08-17T07:33:42.754Z,50.92
2018-08-17T07:36:15.805Z,51.65
2018-08-17T07:38:49.933Z,52.26
2018-08-17T07:41:22.932Z,51.95
2018-08-17T07:43:55.860Z,54.34
2018-08-17T07:46:30.453Z,53.60
2018-08-17T07:49:03.372Z,53.28
2018-08-17T07:51:36.261Z,54.12
2018-08-17T07:54:09.289Z,53.60
2018-08-17T07:56:42.253Z,53.64
2018-08-17T07:59:15.133Z,55.17
2018-08-17T08:01:47.979Z,56.20
2018-08-17T08:04:20.869Z,56.53
2018-08-17T08:06:53.801Z,56.91
2018-08-17T08:09:26.706Z,57.52
2018-08-17T08:11:59.626Z,57.69
2018-08-17T08:14:32.507Z,56.58
2018-08-17T08:17:05.515Z,55.65
2018-08-17T08:19:38.381Z,55.69
2018-08-17T08:22:11.239Z,54.62
2018-08-17T08:24:44.296Z,54.86
2018-08-17T08:27:17.260Z,55.14
2018-08-17T08:29:50.179Z,55.78
2018-08-17T08:32:23.091Z,54.92
2018-08-17T08:34:55.897Z,55.47
2018-08-17T08:37:28.724Z,55.07
2018-08-17T08:40:01.724Z,55.56
2018-08-17T08:42:34.819Z,55.33
2018-08-17T08:45:08.171Z,55.63
2018-08-17T08:47:45.436Z,54.50
2018-08-17T08:50:19.247Z,55.33
2018-08-17T08:52:52.426Z,55.38
2018-08-17T08:55:25.349Z,56.53
2018-08-17T08:57:58.446Z,56.70
2018-08-17T09:00:31.399Z,56.58
2018-08-17T09:03:04.243Z,56.34
2018-08-17T09:05:37.299Z,56.12
2018-08-17T09:08:10.524Z,56.78
2018-08-17T09:10:43.458Z,57.55
2018-08-17T09:13:16.414Z,58.27
2018-08-17T09:15:49.253Z,58.71
2018-08-17T09:18:22.165Z,58.08
2018-08-17T09:20:55.063Z,58.18
2018-08-17T09:23:27.930Z,58.16
2018-08-17T09:26:00.700Z,57.02
2018-08-17T09:28:33.598Z,57.80
2018-08-17T09:31:06.561Z,57.27
2018-08-17T09:33:39.666Z,56.59
2018-08-17T09:36:13.487Z,57.13
2018-08-17T09:38:47.379Z,56.78
2018-08-17T09:41:20.302Z,57.16
2018-08-17T09:43:53.132Z,58.06
2018-08-17T09:46:26.605Z,56.76
2018-08-17T09:48:59.546Z,57.89
2018-08-17T09:51:32.875Z,58.99
2018-08-17T09:54:05.718Z,59.71
2018-08-17T09:56:38.924Z,59.87
2018-08-17T09:59:12.165Z,59.81
2018-08-17T10:01:49.111Z,60.82
2018-08-17T10:04:25.996Z,60.09
2018-08-17T10:07:03.915Z,60.56
2018-08-17T10:09:40.782Z,61.05
2018-08-17T10:12:13.715Z,61.63
2018-08-17T10:14:46.648Z,63.52
2018-08-17T10:17:19.655Z,63.11
2018-08-17T10:19:52.547Z,64.02
2018-08-17T10:22:25.416Z,64.17
2018-08-17T10:25:12.859Z,64.05
2018-08-17T10:27:45.974Z,64.29
2018-08-17T10:30:19.589Z,65.52
2018-08-17T10:32:57.441Z,65.71
2018-08-17T10:35:36.094Z,66.54
2018-08-17T10:38:10.525Z,66.21
2018-08-17T10:40:43.637Z,67.36
2018-08-17T10:43:16.503Z,67.38
2018-08-17T10:45:49.389Z,68.13
2018-08-17T10:48:22.629Z,67.81
2018-08-17T10:50:59.073Z,66.87
2018-08-17T10:53:38.950Z,67.42
2018-08-17T10:56:11.886Z,67.60
2018-08-17T10:58:44.700Z,67.75
2018-08-17T11:01:17.788Z,68.32
2018-08-17T11:03:50.647Z,67.94
2018-08-17T11:06:24.126Z,67.75
2018-08-17T11:08:59.087Z,67.65
2018-08-17T11:11:34.595Z,68.07
2018-08-17T11:14:07.661Z,67.72
2018-08-17T11:16:40.819Z,67.21
2018-08-17T11:19:13.777Z,67.85
2018-08-17T11:21:46.747Z,67.44
2018-08-17T11:24:19.689Z,67.08
2018-08-17T11:26:52.560Z,65.94
2018-08-17T11:29:25.522Z,65.56
2018-08-17T11:31:58.416Z,65.52
2018-08-17T11:34:31.331Z,65.85
2018-08-17T11:37:04.354Z,65.23
2018-08-17T11:39:37.233Z,65.66
2018-08-17T11:42:10.230Z,67.09
2018-08-17T11:44:43.076Z,67.36
2018-08-17T11:47:16.019Z,66.82
2018-08-17T11:49:49.792Z,67.07
2018-08-17T11:52:22.765Z,66.27
2018-08-17T11:54:55.700Z,66.62
2018-08-17T11:57:28.677Z,66.98
2018-08-17T12:00:01.660Z,65.91
2018-08-17T12:02:34.569Z,66.92
2018-08-17T12:05:07.709Z,66.31
2018-08-17T12:07:40.963Z,66.03
2018-08-17T12:10:13.810Z,66.83
2018-08-17T12:12:49.481Z,66.29
2018-08-17T12:15:24.654Z,65.68
2018-08-17T12:17:58.924Z,66.37
2018-08-17T12:20:33.758Z,65.69
2018-08-17T12:23:08.898Z,65.50
2018-08-17T12:25:48.463Z,65.17
2018-08-17T12:28:21.789Z,66.35
2018-08-17T12:30:55.671Z,65.98
2018-08-17T12:33:30.345Z,67.06
2018-08-17T12:36:04.453Z,66.79
2018-08-17T12:38:37.714Z,66.02
2018-08-17T12:41:12.010Z,65.47
2018-08-17T12:43:46.931Z,65.94
2018-08-17T12:46:20.768Z,65.59
2018-08-17T12:48:54.504Z,65.83
2018-08-17T12:51:28.305Z,66.29
2018-08-17T12:54:02.848Z,66.58
2018-08-17T12:56:35.670Z,67.31
2018-08-17T12:59:09.850Z,65.71
2018-08-17T13:01:43.491Z,66.87
2018-08-17T13:04:17.604Z,66.21
2018-08-17T13:06:51.124Z,67.54
2018-08-17T13:09:25.033Z,67.51
2018-08-17T13:11:59.949Z,67.08
2018-08-17T13:14:33.310Z,67.61
2018-08-17T13:17:08.446Z,66.77
2018-08-17T13:19:41.734Z,66.78
2018-08-17T13:22:16.826Z,67.53
2018-08-17T13:24:50.952Z,67.41
2018-08-17T13:27:24.378Z,67.23
2018-08-17T13:29:58.100Z,67.69
2018-08-17T13:32:31.331Z,68.18
2018-08-17T13:35:04.867Z,68.29
2018-08-17T13:37:39.042Z,68.46
2018-08-17T13:40:13.288Z,68.38
2018-08-17T13:42:47.110Z,67.54
2018-08-17T13:45:22.426Z,67.90
2018-08-17T13:47:56.532Z,69.01
2018-08-17T13:50:29.553Z,68.06
2018-08-17T13:53:02.619Z,68.79
2018-08-17T13:55:35.518Z,68.80
2018-08-17T13:58:09.204Z,68.45
2018-08-17T14:00:42.114Z,68.64
2018-08-17T14:03:16.178Z,69.27
2018-08-17T14:05:49.102Z,69.88
2018-08-17T14:08:22.049Z,69.60
2018-08-17T14:10:55.120Z,69.44
2018-08-17T14:13:28.226Z,69.37
2018-08-17T14:16:01.152Z,70.00
2018-08-17T14:18:34.114Z,70.37
2018-08-17T14:21:07.040Z,70.16
2018-08-17T14:23:39.841Z,69.35
2018-08-17T14:26:12.789Z,69.53
2018-08-17T14:28:45.759Z,69.26
2018-08-17T14:31:18.767Z,69.67
2018-08-17T14:33:51.722Z,69.52
2018-08-17T14:36:25.306Z,68.84
2018-08-17T14:38:58.307Z,69.96
2018-08-17T14:41:31.197Z,69.68
2018-08-17T14:44:04.093Z,69.14
2018-08-17T14:46:37.000Z,69.52
2018-08-17T14:49:09.958Z,69.91
2018-08-17T14:51:44.048Z,69.73
2018-08-17T14:54:18.147Z,69.99
2018-08-17T14:56:51.853Z,70.50
2018-08-17T14:59:25.626Z,71.47
2018-08-17T15:02:00.512Z,70.93
2018-08-17T15:04:34.479Z,70.90
2018-08-17T15:07:08.703Z,71.67
2018-08-17T15:09:42.494Z,71.34
2018-08-17T15:12:17.023Z,71.66
2018-08-17T15:14:50.889Z,71.29
2018-08-17T15:17:25.184Z,70.02
2018-08-17T15:19:59.206Z,70.42
2018-08-17T15:22:33.581Z,69.98
2018-08-17T15:25:07.117Z,71.05
2018-08-17T15:27:40.886Z,70.59
2018-08-17T15:30:14.955Z,71.15
2018-08-17T15:32:47.972Z,70.33
2018-08-17T15:35:21.249Z,70.07
2018-08-17T15:37:55.784Z,70.67
2018-08-17T15:40:28.823Z,69.93
2018-08-17T15:43:08.777Z,70.50
2018-08-17T15:45:43.306Z,70.54
2018-08-17T15:48:18.159Z,70.80
2018-08-17T15:50:54.152Z,70.76
2018-08-17T15:53:29.430Z,70.43
2018-08-17T15:56:02.866Z,70.71
2018-08-17T15:58:38.785Z,70.57
2018-08-17T16:01:16.986Z,70.96
2018-08-17T16:03:53.384Z,70.84
2018-08-17T16:06:28.362Z,71.21
2018-08-17T16:09:05.160Z,71.35
2018-08-17T16:11:39.161Z,71.20
2018-08-17T16:14:14.667Z,71.88
2018-08-17T16:16:48.869Z,72.02
2018-08-17T16:19:25.895Z,72.29
2018-08-17T16:21:58.874Z,71.79
2018-08-17T16:24:33.758Z,72.36
2018-08-17T16:27:07.347Z,73.15
2018-08-17T16:29:40.576Z,72.43
2018-08-17T16:32:13.900Z,73.20
2018-08-17T16:34:46.976Z,73.76
2018-08-17T16:37:20.027Z,73.18
2018-08-17T16:39:56.728Z,73.12
2018-08-17T16:42:33.847Z,74.10
2018-08-17T16:45:07.843Z,73.06
2018-08-17T16:47:40.791Z,73.12
2018-08-17T16:50:13.993Z,73.95
2018-08-17T16:52:47.105Z,73.84
2018-08-17T16:55:19.991Z,74.03
2018-08-17T16:57:52.828Z,73.65
2018-08-17T17:00:25.753Z,73.75
2018-08-17T17:02:58.784Z,73.57
2018-08-17T17:05:31.811Z,73.88
2018-08-17T17:08:04.775Z,72.73
2018-08-17T17:10:37.959Z,72.83
2018-08-17T17:13:11.065Z,73.26
2018-08-17T17:15:45.228Z,72.71
2018-08-17T17:18:18.156Z,72.20
2018-08-17T17:20:51.071Z,72.34
2018-08-17T17:23:24.324Z,71.98
2018-08-17T17:25:57.425Z,72.06
2018-08-17T17:28:35.454Z,72.69
2018-08-17T17:31:08.457Z,72.98
2018-08-17T17:33:41.416Z,71.58
2018-08-17T17:36:14.966Z,70.60
2018-08-17T17:38:48.473Z,71.52
2018-08-17T17:41:21.688Z,70.64
2018-08-17T17:43:54.692Z,71.28
2018-08-17T17:46:27.566Z,70.87
2018-08-17T17:49:00.471Z,70.19
2018-08-17T17:51:33.303Z,69.99
2018-08-17T17:54:06.769Z,69.81
2018-08-17T17:56:39.780Z,69.95
2018-08-17T17:59:17.598Z,70.77
2018-08-17T18:01:50.605Z,70.85
2018-08-17T18:04:23.665Z,70.75
2018-08-17T18:06:56.556Z,70.36
2018-08-17T18:09:29.438Z,70.55
2018-08-17T18:12:02.473Z,70.71
2018-08-17T18:14:36.102Z,70.76
2018-08-17T18:17:09.062Z,70.82
2018-08-17T18:19:42.064Z,70.47
2018-08-17T18:22:27.622Z,70.81
2018-08-17T18:25:06.620Z,70.25
2018-08-17T18:27:39.494Z,71.02
2018-08-17T18:30:12.478Z,70.99
2018-08-17T18:32:46.440Z,70.91
2018-08-17T18:35:19.513Z,69.94
2018-08-17T18:37:52.502Z,70.43
2018-08-17T18:40:25.508Z,70.23
2018-08-17T18:42:58.392Z,70.52
2018-08-17T18:45:31.366Z,70.35
2018-08-17T18:48:04.298Z,70.38
2018-08-17T18:50:37.350Z,71.50
2018-08-17T18:53:10.273Z,70.99
2018-08-17T18:55:43.339Z,70.60
2018-08-17T18:58:16.260Z,71.97
2018-08-17T19:00:49.175Z,71.84
2018-08-17T19:03:23.052Z,70.98
2018-08-17T19:05:55.987Z,72.07
2018-08-17T19:08:28.885Z,71.64
2018-08-17T19:11:01.869Z,72.20
2018-08-17T19:13:34.849Z,72.02
2018-08-17T19:16:07.793Z,72.97
2018-08-17T19:18:40.656Z,73.13
2018-08-17T19:21:16.227Z,72.60
2018-08-17T19:23:49.078Z,73.07
2018-08-17T19:26:22.135Z,72.96
2018-08-17T19:28:56.589Z,73.66
2018-08-17T19:31:29.571Z,74.51
2018-08-17T19:34:02.537Z,75.02
2018-08-17T19:36:35.538Z,74.26
2018-08-17T19:39:09.471Z,74.00
2018-08-17T19:41:43.492Z,75.05
2018-08-17T19:44:16.696Z,75.29
2018-08-17T19:46:49.800Z,75.14
2018-08-17T19:49:22.895Z,74.19
2018-08-17T19:51:55.926Z,74.66
2018-08-17T19:54:28.965Z,75.17
2018-08-17T19:57:03.323Z,75.71
2018-08-17T19:59:36.414Z,75.08
2018-08-17T20:02:09.518Z,75.21
2018-08-17T20:07:13.502Z,75.91
2018-08-17T20:09:49.098Z,75.49
2018-08-17T20:12:23.100Z,75.79
2018-08-17T20:14:56.082Z,76.45
2018-08-17T20:17:29.173Z,75.96
2018-08-17T20:20:02.312Z,75.38
2018-08-17T20:22:35.714Z,75.63
2018-08-17T20:25:16.462Z,74.46
2018-08-17T20:27:49.669Z,75.10
2018-08-17T20:30:24.014Z,75.47
2018-08-17T20:32:57.086Z,75.34
2018-08-17T20:35:31.472Z,74.42
2018-08-17T20:38:04.622Z,74.10
2018-08-17T20:40:37.844Z,74.71
2018-08-17T20:43:11.090Z,74.98
2018-08-17T20:45:44.131Z,74.82
2018-08-17T20:48:17.254Z,74.05
2018-08-17T20:50:50.357Z,73.83
2018-08-17T20:53:24.384Z,74.02
2018-08-17T20:55:57.876Z,74.19
2018-08-17T20:58:30.965Z,74.50
2018-08-17T21:01:04.222Z,74.92
2018-08-17T21:03:37.335Z,74.33
2018-08-17T21:06:10.486Z,74.40
2018-08-17T21:08:43.689Z,74.00
2018-08-17T21:11:16.850Z,73.36
2018-08-17T21:13:49.973Z,74.43
2018-08-17T21:16:23.069Z,73.97
2018-08-17T21:18:57.173Z,74.88
2018-08-17T21:21:30.347Z,74.61
2018-08-17T21:24:03.752Z,73.69
2018-08-17T21:26:37.444Z,73.85
2018-08-17T21:29:10.562Z,74.97
2018-08-17T21:31:43.593Z,74.05
2018-08-17T21:34:16.814Z,74.18
2018-08-17T21:36:50.141Z,74.83
2018-08-17T21:39:23.515Z,74.92
2018-08-17T21:41:56.509Z,75.02
2018-08-17T21:44:29.384Z,74.87
2018-08-17T21:47:07.130Z,74.54
2018-08-17T21:49:39.930Z,75.41
2018-08-17T21:52:16.578Z,74.87
2018-08-17T21:54:49.505Z,74.30
2018-08-17T21:57:22.413Z,74.19
2018-08-17T21:59:55.290Z,74.29
2018-08-17T22:02:28.282Z,74.89
2018-08-17T22:05:01.320Z,74.34
2018-08-17T22:07:36.121Z,74.40
2018-08-17T22:10:09.524Z,74.11
2018-08-17T22:12:42.548Z,74.73
2018-08-17T22:15:15.896Z,74.92
2018-08-17T22:17:48.861Z,74.94
2018-08-17T22:20:21.874Z,75.49
2018-08-17T22:22:55.205Z,74.50
2018-08-17T22:25:28.316Z,74.46
2018-08-17T22:28:01.238Z,74.90
2018-08-17T22:30:34.129Z,74.49
2018-08-17T22:33:07.207Z,74.79
2018-08-17T22:35:40.234Z,75.45
2018-08-17T22:38:13.236Z,75.24
2018-08-17T22:40:46.283Z,74.73
2018-08-17T22:43:19.171Z,75.15
2018-08-17T22:45:52.581Z,74.35
2018-08-17T22:48:25.655Z,73.94
2018-08-17T22:50:58.589Z,73.99
2018-08-17T22:53:31.495Z,72.85
2018-08-17T22:56:04.497Z,72.74
2018-08-17T22:58:41.501Z,73.65
2018-08-17T23:01:14.877Z,73.17
2018-08-17T23:03:53.044Z,73.46
2018-08-17T23:06:27.808Z,73.89
2018-08-17T23:09:01.473Z,73.54
2018-08-17T23:11:38.209Z,74.13
2018-08-17T23:14:16.749Z,73.65
2018-08-17T23:16:50.801Z,74.06
2018-08-17T23:19:23.797Z,73.57
2018-08-17T23:21:56.785Z,74.68
2018-08-17T23:24:29.656Z,74.54
2018-08-17T23:27:02.748Z,74.83
2018-08-17T23:29:35.704Z,74.73
2018-08-17T23:32:09.056Z,73.98
2018-08-17T23:34:42.303Z,73.73
2018-08-17T23:37:15.510Z,74.18
2018-08-17T23:39:49.032Z,73.27
2018-08-17T23:42:22.546Z,74.13
2018-08-17T23:44:56.038Z,73.42
2018-08-17T23:47:29.742Z,73.27
2018-08-17T23:50:03.402Z,74.01
2018-08-17T23:52:37.941Z,72.40
2018-08-17T23:57:50.475Z,72.59
